Terminal Aerodrome Forecast
Issued by NWS Chicago, IL

Home | Current Version | Previous Version | Text Only | Print | Product List | Glossary Off
Versions: 1 2 3 4 5 6 7 8 9 10 11 12 13 14 15 16 17 18 19 20 21 22 23 24 25 26 27 28 29 30

134
FTUS43 KLOT 170522
TAFRFD
TAF
KRFD 170522Z 1706/1806 18012KT 6SM BR SCT010 BKN040
     FM170800 19012KT 5SM BR SCT010 BKN020
     FM171300 24012G20KT P6SM SCT020 BKN035
     FM171700 25018G26KT P6SM BKN050
     FM180100 26010KT P6SM BKN050=

USA.gov is the U.S. government's official web portal to all federal, state and local government web resources and services.